Curtiss — WMRM — position and weather

sailwx.info

Track history (hours):
 
Tides and Currents Weather Stations Pressure Air Temp Water Temp Dewpoint Dewpoint Depression Visibility Wind Speed Wind Dir Waves Ship Positions

Curtiss

Owner: MARITIME ADMINISTRATION, WASHINGTON, DC. More information available from US FCC via Universal Licensing System and Coast Guard Vessel Documentation Center.

Last reported at 2015-Sep-04 03:31 UTC. Time now 2015-Sep-04 03:49 UTC.
Position N 33°03' W 118°42'.

Length 183 m.

Type: Ship. MMSI: 366503000.

Date/timePositionNaut miles runAvg speedWind from/ knotsBaromVisibWave heightAir tempDewpointWater temp
2015-Sep-04 03:31N 33°03' W 118°42'2712.0
2015-Sep-04 01:18N 33°05' W 118°10'912.6
2015-Sep-04 00:33N 33°05' W 117°59'1312.8
2015-Sep-03 23:33N 33°05' W 117°44'8 7.8
2015-Sep-03 22:33N 33°07' W 117°35'3 2.5
2015-Sep-03 21:33N 33°07' W 117°38'1313.1
2015-Sep-03 20:34N 33°02' W 117°53'9 9.3
2015-Sep-03 19:33N 32°59' W 118°03'2 2.2
2015-Sep-03 18:33N 32°57' W 118°03'1 1.1
2015-Sep-03 17:33N 32°58' W 118°04'1 1.0
2015-Sep-03 16:33N 32°59' W 118°04'1 1.4
2015-Sep-03 15:33N 33°01' W 118°04'2 2.0
2015-Sep-03 14:33N 32°59' W 118°04'9 8.8
2015-Sep-03 13:33N 32°50' W 118°08'40 4.4
2015-Sep-03 04:26N 32°52' W 118°55'1 1.1
2015-Sep-03 03:33N 32°51' W 118°55'8 7.7
2015-Sep-03 02:31N 32°44' W 118°52'11 5.4
2015-Sep-03 00:33N 32°38' W 118°41'1212.6
2015-Sep-02 23:34N 32°40' W 118°26'1412.8
2015-Sep-02 22:29N 32°50' W 118°15'1314.2
2015-Sep-02 21:33N 33°01' W 118°22'1716.1
2015-Sep-02 20:29N 33°06' W 118°42'1010.4
2015-Sep-02 19:33N 33°01' W 118°52'7 5.2
2015-Sep-02 18:17N 32°56' W 118°57'3 4.6
2015-Sep-02 17:33N 32°53' W 118°59'0 0.4
2015-Sep-02 16:33N 32°53' W 118°59'1 0.9
2015-Sep-02 15:31N 32°53' W 118°59'2 2.4
2015-Sep-02 14:32N 32°50' W 118°60'9 9.0
2015-Sep-02 13:33N 32°43' W 118°55'1313.0
2015-Sep-02 12:33N 32°42' W 118°39'1313.1
2015-Sep-02 11:33N 32°40' W 118°24'1313.0
2015-Sep-02 10:33N 32°40' W 118°08'1313.1
2015-Sep-02 09:34N 32°39' W 117°53'1313.2
2015-Sep-02 08:33N 32°39' W 117°37'1212.0
2015-Sep-02 07:33N 32°38' W 117°23'1515.0
2015-Sep-02 06:33N 32°38' W 117°41'1615.7
2015-Sep-02 05:33N 32°39' W 117°59'1615.9
2015-Sep-02 04:33N 32°40' W 118°18'1615.6
2015-Sep-02 03:33N 32°44' W 118°36'1813.8
2015-Sep-02 02:16N 32°53' W 118°54'1 0.7
2015-Sep-02 01:34N 32°53' W 118°55'1 0.8
2015-Sep-02 00:32N 32°54' W 118°55'6 4.4
2015-Sep-01 23:03N 32°60' W 118°52'1013.8
2015-Sep-01 22:22N 33°08' W 118°46'1214.9
2015-Sep-01 21:34N 33°08' W 118°32'9 8.3
2015-Sep-01 20:28N 33°06' W 118°42'1111.7
2015-Sep-01 19:33N 32°60' W 118°53'7 5.7
2015-Sep-01 18:20N 32°54' W 118°57'1 1.5
2015-Sep-01 17:32N 32°53' W 118°58'1 0.7
2015-Sep-01 16:28N 32°54' W 118°59'2 1.9
2015-Sep-01 15:31N 32°52' W 118°59'1 0.9
2015-Sep-01 14:26N 32°53' W 118°60'3 3.4
2015-Sep-01 13:32N 32°55' W 119°01'8 7.9
2015-Sep-01 12:33N 33°03' W 119°03'1313.4
2015-Sep-01 11:33N 33°03' W 118°47'8 8.0
2015-Sep-01 10:33N 33°01' W 118°57'9 9.5
2015-Sep-01 09:33N 32°55' W 119°06'1110.7
2015-Sep-01 08:33N 32°46' W 119°00'1312.7
2015-Sep-01 07:33N 32°43' W 118°45'1212.3
2015-Sep-01 06:33N 32°40' W 118°31'1212.5
2015-Sep-01 05:33N 32°39' W 118°16'1313.0
2015-Sep-01 04:33N 32°39' W 118°01'1313.0
2015-Sep-01 03:34N 32°38' W 117°46'1313.0
2015-Sep-01 02:33N 32°38' W 117°30'1312.7
2015-Sep-01 01:33N 32°37' W 117°15'7 7.3
2015-Sep-01 00:33N 32°43' W 117°11'0 0.1
2015-Aug-31 23:33N 32°43' W 117°10'0 0.0
2015-Aug-31 22:33N 32°43' W 117°10'0 0.1
2015-Aug-31 21:33N 32°43' W 117°11'0 0.2
2015-Aug-31 20:33N 32°43' W 117°11'5 5.0
2015-Aug-31 19:33N 32°39' W 117°13'1010.1
2015-Aug-31 18:33N 32°33' W 117°24'5 5.3
2015-Aug-31 17:33N 32°35' W 117°30'1313.3
2015-Aug-31 16:34N 32°37' W 117°14'3 2.8
2015-Aug-31 15:32N 32°39' W 117°12'0 0.0
2015-Aug-31 14:32N 32°39' W 117°12'0 0.0
2015-Aug-31 13:32N 32°39' W 117°12'0 0.0
2015-Aug-31 12:32N 32°39' W 117°12'0 0.0
2015-Aug-31 11:32N 32°39' W 117°12'0 0.0
2015-Aug-31 10:32N 32°39' W 117°12'0 0.1
2015-Aug-31 09:32N 32°39' W 117°12'0 0.1
2015-Aug-31 08:32N 32°39' W 117°12'0 0.0
2015-Aug-31 07:29N 32°39' W 117°12'0 0.0
2015-Aug-31 06:32N 32°39' W 117°12'0 0.1
2015-Aug-31 05:32N 32°39' W 117°12'0 0.1
2015-Aug-31 04:32N 32°39' W 117°12'0 0.0
2015-Aug-31 03:29N 32°39' W 117°12'0 0.0
2015-Aug-31 02:34N 32°39' W 117°12'0 0.2
2015-Aug-31 01:33N 32°39' W 117°12'12 9.8
2015-Aug-31 00:22N 32°30' W 117°22'1011.8
2015-Aug-30 23:33N 32°28' W 117°33'8 8.2
2015-Aug-30 22:32N 32°24' W 117°42'2 2.0
2015-Aug-30 21:33N 32°23' W 117°43'2 2.1
2015-Aug-30 20:33N 32°24' W 117°46'4 3.6
2015-Aug-30 19:33N 32°25' W 117°42'7 7.4
2015-Aug-30 18:33N 32°18' W 117°40'8 8.0
2015-Aug-30 17:33N 32°10' W 117°40'8 7.7
2015-Aug-30 16:32N 32°02' W 117°39'2 1.7
2015-Aug-30 15:31N 32°03' W 117°38'9 8.9
2015-Aug-30 14:33N 32°12' W 117°40'9 8.7
2015-Aug-30 13:33N 32°20' W 117°41'9 8.8
2015-Aug-30 12:33N 32°29' W 117°41'9 8.8
2015-Aug-30 11:33N 32°38' W 117°40'9 8.6
2015-Aug-30 10:34N 32°46' W 117°45'9 8.8
2015-Aug-30 09:33N 32°53' W 117°51'9 9.0
2015-Aug-30 08:34N 33°00' W 117°57'9 9.1
2015-Aug-30 07:33N 33°08' W 118°02'9 9.0
2015-Aug-30 06:33N 33°17' W 118°06'9 8.9
2015-Aug-30 05:33N 33°25' W 118°09'9 8.8
2015-Aug-30 04:29N 33°33' W 118°16'8 8.4
2015-Aug-30 03:30N 33°37' W 118°24'8 8.4
2015-Aug-30 02:33N 33°41' W 118°32'1411.5
2015-Aug-30 01:20N 33°48' W 118°47'1213.8
2015-Aug-30 00:29N 33°54' W 118°59'1313.1
2015-Aug-29 23:30N 34°01' W 119°12'9 1.2
2015-Aug-29 16:30N 34°09' W 119°12'450323955.5
2015-Aug-29 16:30N 27°07' W 116°12'1313.1
2015-Aug-29 15:29N 26°55' W 116°04'4622219.8
2015-Aug-29 15:17N 34°08' W 119°14'6 8.1
2015-Aug-29 14:31N 34°02' W 119°12'4705694.0
2015-Aug-29 14:26N 26°44' W 115°56'465450.6
2015-Aug-29 13:24N 33°55' W 119°17'1315.0
2015-Aug-29 12:34N 33°45' W 119°26'12 6.2
2015-Aug-29 10:32N 33°36' W 119°36'1818.0
2015-Aug-29 09:33N 33°26' W 119°54'1716.5
2015-Aug-29 08:33N 33°10' W 119°56'3416.6
2015-Aug-29 06:30N 32°41' W 119°34'1717.6
2015-Aug-29 05:34N 32°38' W 119°15'1817.8
2015-Aug-29 04:33N 32°35' W 118°54'1717.6
2015-Aug-29 03:34N 32°31' W 118°34'1717.1
2015-Aug-29 02:33N 32°31' W 118°13'1414.3
2015-Aug-29 01:33N 32°33' W 117°56'1312.7
2015-Aug-29 00:33N 32°36' W 117°42'1312.7
2015-Aug-28 23:33N 32°38' W 117°27'1211.7
2015-Aug-28 22:33N 32°35' W 117°13'1 1.1
2015-Aug-28 21:33N 32°36' W 117°15'3 2.6
2015-Aug-28 20:33N 32°36' W 117°18'5 5.2
2015-Aug-28 19:33N 32°40' W 117°14'1 1.2
2015-Aug-28 18:29N 32°42' W 117°14'0 0.0
2015-Aug-28 17:29N 32°42' W 117°14'0 0.0
2015-Aug-28 16:33N 32°42' W 117°14'3 2.6
2015-Aug-28 15:33N 32°43' W 117°11'4 0.9
2015-Aug-28 11:26N 32°40' W 117°07'0 0.0
2015-Aug-28 09:26N 32°40' W 117°07'0 0.0
2015-Aug-28 08:14N 32°40' W 117°07'0 0.0
2015-Aug-28 07:14N 32°40' W 117°07'0 0.0
2015-Aug-28 06:14N 32°40' W 117°07'0 0.0
2015-Aug-28 05:29N 32°40' W 117°07'0 0.0
2015-Aug-28 04:32N 32°40' W 117°07'0 0.0
2015-Aug-27 11:29N 32°40' W 117°07'0 0.0
2015-Aug-27 10:26N 32°40' W 117°07'0 0.0
2015-Aug-27 09:29N 32°40' W 117°07'0 0.0
2015-Aug-27 02:23N 32°40' W 117°07'0 0.0
2015-Aug-26 15:20N 32°40' W 117°07'0 0.0
2015-Aug-26 14:32N 32°40' W 117°07'0 0.0
2015-Aug-26 12:32N 32°40' W 117°07'0 0.0
2015-Aug-26 11:26N 32°40' W 117°07'0 0.0
2015-Aug-26 09:08N 32°40' W 117°07'0 0.0
2015-Aug-26 08:32N 32°40' W 117°07'0 0.0
2015-Aug-26 07:32N 32°40' W 117°07'0 0.0
2015-Aug-26 06:32N 32°40' W 117°07'0 0.0
2015-Aug-26 03:05N 32°40' W 117°07'0 0.0
2015-Aug-25 20:20N 32°40' W 117°07'0 0.0
2015-Aug-25 16:32N 32°40' W 117°07'0 0.0
2015-Aug-25 09:32N 32°40' W 117°07'0 0.0
2015-Aug-25 08:32N 32°40' W 117°07'0 0.0
2015-Aug-25 06:14N 32°40' W 117°07'0 0.0
2015-Aug-25 04:20N 32°40' W 117°07'0 0.1
2015-Aug-25 03:32N 32°40' W 117°07'  
Track history (hours):
 
Tides and Currents Weather Stations Pressure Air Temp Water Temp Dewpoint Dewpoint Depression Visibility Wind Speed Wind Dir Waves Ship Positions

Curtiss

Owner: MARITIME ADMINISTRATION, WASHINGTON, DC. More information available from US FCC via Universal Licensing System and Coast Guard Vessel Documentation Center.

Last reported at 2015-Sep-04 03:31 UTC. Time now 2015-Sep-04 03:49 UTC.
Position N 33°03' W 118°42'.

Length 183 m.

Type: Ship. MMSI: 366503000.

Date/timePositionNaut miles runAvg speedWind from/ knotsBaromVisibWave heightAir tempDewpointWater temp
2015-Sep-04 03:31N 33°03' W 118°42'2712.0
2015-Sep-04 01:18N 33°05' W 118°10'912.6
2015-Sep-04 00:33N 33°05' W 117°59'1312.8
2015-Sep-03 23:33N 33°05' W 117°44'8 7.8
2015-Sep-03 22:33N 33°07' W 117°35'3 2.5
2015-Sep-03 21:33N 33°07' W 117°38'1313.1
2015-Sep-03 20:34N 33°02' W 117°53'9 9.3
2015-Sep-03 19:33N 32°59' W 118°03'2 2.2
2015-Sep-03 18:33N 32°57' W 118°03'1 1.1
2015-Sep-03 17:33N 32°58' W 118°04'1 1.0
2015-Sep-03 16:33N 32°59' W 118°04'1 1.4
2015-Sep-03 15:33N 33°01' W 118°04'2 2.0
2015-Sep-03 14:33N 32°59' W 118°04'9 8.8
2015-Sep-03 13:33N 32°50' W 118°08'40 4.4
2015-Sep-03 04:26N 32°52' W 118°55'1 1.1
2015-Sep-03 03:33N 32°51' W 118°55'8 7.7
2015-Sep-03 02:31N 32°44' W 118°52'11 5.4
2015-Sep-03 00:33N 32°38' W 118°41'1212.6
2015-Sep-02 23:34N 32°40' W 118°26'1412.8
2015-Sep-02 22:29N 32°50' W 118°15'1314.2
2015-Sep-02 21:33N 33°01' W 118°22'1716.1
2015-Sep-02 20:29N 33°06' W 118°42'1010.4
2015-Sep-02 19:33N 33°01' W 118°52'7 5.2
2015-Sep-02 18:17N 32°56' W 118°57'3 4.6
2015-Sep-02 17:33N 32°53' W 118°59'0 0.4
2015-Sep-02 16:33N 32°53' W 118°59'1 0.9
2015-Sep-02 15:31N 32°53' W 118°59'2 2.4
2015-Sep-02 14:32N 32°50' W 118°60'9 9.0
2015-Sep-02 13:33N 32°43' W 118°55'1313.0
2015-Sep-02 12:33N 32°42' W 118°39'1313.1
2015-Sep-02 11:33N 32°40' W 118°24'1313.0
2015-Sep-02 10:33N 32°40' W 118°08'1313.1
2015-Sep-02 09:34N 32°39' W 117°53'1313.2
2015-Sep-02 08:33N 32°39' W 117°37'1212.0
2015-Sep-02 07:33N 32°38' W 117°23'1515.0
2015-Sep-02 06:33N 32°38' W 117°41'1615.7
2015-Sep-02 05:33N 32°39' W 117°59'1615.9
2015-Sep-02 04:33N 32°40' W 118°18'1615.6
2015-Sep-02 03:33N 32°44' W 118°36'1813.8
2015-Sep-02 02:16N 32°53' W 118°54'1 0.7
2015-Sep-02 01:34N 32°53' W 118°55'1 0.8
2015-Sep-02 00:32N 32°54' W 118°55'6 4.4
2015-Sep-01 23:03N 32°60' W 118°52'1013.8
2015-Sep-01 22:22N 33°08' W 118°46'1214.9
2015-Sep-01 21:34N 33°08' W 118°32'9 8.3
2015-Sep-01 20:28N 33°06' W 118°42'1111.7
2015-Sep-01 19:33N 32°60' W 118°53'7 5.7
2015-Sep-01 18:20N 32°54' W 118°57'1 1.5
2015-Sep-01 17:32N 32°53' W 118°58'1 0.7
2015-Sep-01 16:28N 32°54' W 118°59'2 1.9
2015-Sep-01 15:31N 32°52' W 118°59'1 0.9
2015-Sep-01 14:26N 32°53' W 118°60'3 3.4
2015-Sep-01 13:32N 32°55' W 119°01'8 7.9
2015-Sep-01 12:33N 33°03' W 119°03'1313.4
2015-Sep-01 11:33N 33°03' W 118°47'8 8.0
2015-Sep-01 10:33N 33°01' W 118°57'9 9.5
2015-Sep-01 09:33N 32°55' W 119°06'1110.7
2015-Sep-01 08:33N 32°46' W 119°00'1312.7
2015-Sep-01 07:33N 32°43' W 118°45'1212.3
2015-Sep-01 06:33N 32°40' W 118°31'1212.5
2015-Sep-01 05:33N 32°39' W 118°16'1313.0
2015-Sep-01 04:33N 32°39' W 118°01'1313.0
2015-Sep-01 03:34N 32°38' W 117°46'1313.0
2015-Sep-01 02:33N 32°38' W 117°30'1312.7
2015-Sep-01 01:33N 32°37' W 117°15'7 7.3
2015-Sep-01 00:33N 32°43' W 117°11'0 0.1
2015-Aug-31 23:33N 32°43' W 117°10'0 0.0
2015-Aug-31 22:33N 32°43' W 117°10'0 0.1
2015-Aug-31 21:33N 32°43' W 117°11'0 0.2
2015-Aug-31 20:33N 32°43' W 117°11'5 5.0
2015-Aug-31 19:33N 32°39' W 117°13'1010.1
2015-Aug-31 18:33N 32°33' W 117°24'5 5.3
2015-Aug-31 17:33N 32°35' W 117°30'1313.3
2015-Aug-31 16:34N 32°37' W 117°14'3 2.8
2015-Aug-31 15:32N 32°39' W 117°12'0 0.0
2015-Aug-31 14:32N 32°39' W 117°12'0 0.0
2015-Aug-31 13:32N 32°39' W 117°12'0 0.0
2015-Aug-31 12:32N 32°39' W 117°12'0 0.0
2015-Aug-31 11:32N 32°39' W 117°12'0 0.0
2015-Aug-31 10:32N 32°39' W 117°12'0 0.1
2015-Aug-31 09:32N 32°39' W 117°12'0 0.1
2015-Aug-31 08:32N 32°39' W 117°12'0 0.0
2015-Aug-31 07:29N 32°39' W 117°12'0 0.0
2015-Aug-31 06:32N 32°39' W 117°12'0 0.1
2015-Aug-31 05:32N 32°39' W 117°12'0 0.1
2015-Aug-31 04:32N 32°39' W 117°12'0 0.0
2015-Aug-31 03:29N 32°39' W 117°12'0 0.0
2015-Aug-31 02:34N 32°39' W 117°12'0 0.2
2015-Aug-31 01:33N 32°39' W 117°12'12 9.8
2015-Aug-31 00:22N 32°30' W 117°22'1011.8
2015-Aug-30 23:33N 32°28' W 117°33'8 8.2
2015-Aug-30 22:32N 32°24' W 117°42'2 2.0
2015-Aug-30 21:33N 32°23' W 117°43'2 2.1
2015-Aug-30 20:33N 32°24' W 117°46'4 3.6
2015-Aug-30 19:33N 32°25' W 117°42'7 7.4
2015-Aug-30 18:33N 32°18' W 117°40'8 8.0
2015-Aug-30 17:33N 32°10' W 117°40'8 7.7
2015-Aug-30 16:32N 32°02' W 117°39'2 1.7
2015-Aug-30 15:31N 32°03' W 117°38'9 8.9
2015-Aug-30 14:33N 32°12' W 117°40'9 8.7
2015-Aug-30 13:33N 32°20' W 117°41'9 8.8
2015-Aug-30 12:33N 32°29' W 117°41'9 8.8
2015-Aug-30 11:33N 32°38' W 117°40'9 8.6
2015-Aug-30 10:34N 32°46' W 117°45'9 8.8
2015-Aug-30 09:33N 32°53' W 117°51'9 9.0
2015-Aug-30 08:34N 33°00' W 117°57'9 9.1
2015-Aug-30 07:33N 33°08' W 118°02'9 9.0
2015-Aug-30 06:33N 33°17' W 118°06'9 8.9
2015-Aug-30 05:33N 33°25' W 118°09'9 8.8
2015-Aug-30 04:29N 33°33' W 118°16'8 8.4
2015-Aug-30 03:30N 33°37' W 118°24'8 8.4
2015-Aug-30 02:33N 33°41' W 118°32'1411.5
2015-Aug-30 01:20N 33°48' W 118°47'1213.8
2015-Aug-30 00:29N 33°54' W 118°59'1313.1
2015-Aug-29 23:30N 34°01' W 119°12'9 1.2
2015-Aug-29 16:30N 34°09' W 119°12'450323955.5
2015-Aug-29 16:30N 27°07' W 116°12'1313.1
2015-Aug-29 15:29N 26°55' W 116°04'4622219.8
2015-Aug-29 15:17N 34°08' W 119°14'6 8.1
2015-Aug-29 14:31N 34°02' W 119°12'4705694.0
2015-Aug-29 14:26N 26°44' W 115°56'465450.6
2015-Aug-29 13:24N 33°55' W 119°17'1315.0
2015-Aug-29 12:34N 33°45' W 119°26'12 6.2
2015-Aug-29 10:32N 33°36' W 119°36'1818.0
2015-Aug-29 09:33N 33°26' W 119°54'1716.5
2015-Aug-29 08:33N 33°10' W 119°56'3416.6
2015-Aug-29 06:30N 32°41' W 119°34'1717.6
2015-Aug-29 05:34N 32°38' W 119°15'1817.8
2015-Aug-29 04:33N 32°35' W 118°54'1717.6
2015-Aug-29 03:34N 32°31' W 118°34'1717.1
2015-Aug-29 02:33N 32°31' W 118°13'1414.3
2015-Aug-29 01:33N 32°33' W 117°56'1312.7
2015-Aug-29 00:33N 32°36' W 117°42'1312.7
2015-Aug-28 23:33N 32°38' W 117°27'1211.7
2015-Aug-28 22:33N 32°35' W 117°13'1 1.1
2015-Aug-28 21:33N 32°36' W 117°15'3 2.6
2015-Aug-28 20:33N 32°36' W 117°18'5 5.2
2015-Aug-28 19:33N 32°40' W 117°14'1 1.2
2015-Aug-28 18:29N 32°42' W 117°14'0 0.0
2015-Aug-28 17:29N 32°42' W 117°14'0 0.0
2015-Aug-28 16:33N 32°42' W 117°14'3 2.6
2015-Aug-28 15:33N 32°43' W 117°11'4 0.9
2015-Aug-28 11:26N 32°40' W 117°07'0 0.0
2015-Aug-28 09:26N 32°40' W 117°07'0 0.0
2015-Aug-28 08:14N 32°40' W 117°07'0 0.0
2015-Aug-28 07:14N 32°40' W 117°07'0 0.0
2015-Aug-28 06:14N 32°40' W 117°07'0 0.0
2015-Aug-28 05:29N 32°40' W 117°07'0 0.0
2015-Aug-28 04:32N 32°40' W 117°07'0 0.0
2015-Aug-27 11:29N 32°40' W 117°07'0 0.0
2015-Aug-27 10:26N 32°40' W 117°07'0 0.0
2015-Aug-27 09:29N 32°40' W 117°07'0 0.0
2015-Aug-27 02:23N 32°40' W 117°07'0 0.0
2015-Aug-26 15:20N 32°40' W 117°07'0 0.0
2015-Aug-26 14:32N 32°40' W 117°07'0 0.0
2015-Aug-26 12:32N 32°40' W 117°07'0 0.0
2015-Aug-26 11:26N 32°40' W 117°07'0 0.0
2015-Aug-26 09:08N 32°40' W 117°07'0 0.0
2015-Aug-26 08:32N 32°40' W 117°07'0 0.0
2015-Aug-26 07:32N 32°40' W 117°07'0 0.0
2015-Aug-26 06:32N 32°40' W 117°07'0 0.0
2015-Aug-26 03:05N 32°40' W 117°07'0 0.0
2015-Aug-25 20:20N 32°40' W 117°07'0 0.0
2015-Aug-25 16:32N 32°40' W 117°07'0 0.0
2015-Aug-25 09:32N 32°40' W 117°07'0 0.0
2015-Aug-25 08:32N 32°40' W 117°07'0 0.0
2015-Aug-25 06:14N 32°40' W 117°07'0 0.0
2015-Aug-25 04:20N 32°40' W 117°07'0 0.1
2015-Aug-25 03:32N 32°40' W 117°07'  

Dump ship's entire track history